sensor_id;sensor_type;location;lat;lon;timestamp;P1;durP1;ratioP1;P2;durP2;ratioP2
72127;SDS011;60000;51.030;7.024;2023-03-23T00:02:13;7.32;;;1.60;;
72127;SDS011;60000;51.030;7.024;2023-03-23T00:04:39;6.18;;;1.80;;
72127;SDS011;60000;51.030;7.024;2023-03-23T00:07:04;5.17;;;1.43;;
72127;SDS011;60000;51.030;7.024;2023-03-23T00:09:30;5.70;;;1.60;;
72127;SDS011;60000;51.030;7.024;2023-03-23T00:11:59;4.40;;;1.40;;
72127;SDS011;60000;51.030;7.024;2023-03-23T00:14:30;4.47;;;1.73;;
72127;SDS011;60000;51.030;7.024;2023-03-23T00:17:05;4.05;;;1.38;;
72127;SDS011;60000;51.030;7.024;2023-03-23T00:19:39;6.10;;;1.52;;
72127;SDS011;60000;51.030;7.024;2023-03-23T00:22:16;4.82;;;1.63;;
72127;SDS011;60000;51.030;7.024;2023-03-23T00:24:44;5.72;;;1.60;;
72127;SDS011;60000;51.030;7.024;2023-03-23T00:27:09;4.90;;;1.60;;
72127;SDS011;60000;51.030;7.024;2023-03-23T00:29:37;5.18;;;1.40;;
72127;SDS011;60000;51.030;7.024;2023-03-23T00:32:03;4.32;;;1.27;;
72127;SDS011;60000;51.030;7.024;2023-03-23T00:34:29;3.97;;;1.20;;
72127;SDS011;60000;51.030;7.024;2023-03-23T00:36:58;5.15;;;1.30;;
72127;SDS011;60000;51.030;7.024;2023-03-23T00:39:25;3.92;;;1.17;;
72127;SDS011;60000;51.030;7.024;2023-03-23T00:41:52;4.30;;;1.50;;
72127;SDS011;60000;51.030;7.024;2023-03-23T00:44:19;5.47;;;1.70;;
72127;SDS011;60000;51.030;7.024;2023-03-23T00:46:49;3.97;;;1.30;;
72127;SDS011;60000;51.030;7.024;2023-03-23T00:49:15;3.20;;;1.10;;
72127;SDS011;60000;51.030;7.024;2023-03-23T00:51:43;4.53;;;1.40;;
72127;SDS011;60000;51.030;7.024;2023-03-23T00:54:09;4.13;;;1.20;;
72127;SDS011;60000;51.030;7.024;2023-03-23T00:56:35;3.25;;;0.90;;
72127;SDS011;60000;51.030;7.024;2023-03-23T00:59:01;3.00;;;1.13;;
72127;SDS011;60000;51.030;7.024;2023-03-23T01:01:27;3.87;;;1.13;;
72127;SDS011;60000;51.030;7.024;2023-03-23T01:03:52;4.93;;;1.23;;
72127;SDS011;60000;51.030;7.024;2023-03-23T01:06:25;4.33;;;1.50;;
72127;SDS011;60000;51.030;7.024;2023-03-23T01:08:52;3.45;;;1.20;;
72127;SDS011;60000;51.030;7.024;2023-03-23T01:11:18;3.70;;;1.30;;
72127;SDS011;60000;51.030;7.024;2023-03-23T01:13:44;3.65;;;1.30;;
72127;SDS011;60000;51.030;7.024;2023-03-23T01:16:10;2.80;;;1.13;;
72127;SDS011;60000;51.030;7.024;2023-03-23T01:18:36;3.47;;;1.10;;
72127;SDS011;60000;51.030;7.024;2023-03-23T01:21:06;3.60;;;1.50;;
72127;SDS011;60000;51.030;7.024;2023-03-23T01:23:33;6.63;;;1.45;;
72127;SDS011;60000;51.030;7.024;2023-03-23T01:26:08;3.90;;;1.40;;
72127;SDS011;60000;51.030;7.024;2023-03-23T01:28:35;2.75;;;1.10;;
72127;SDS011;60000;51.030;7.024;2023-03-23T01:31:02;4.17;;;1.40;;
72127;SDS011;60000;51.030;7.024;2023-03-23T01:33:28;4.10;;;1.35;;
72127;SDS011;60000;51.030;7.024;2023-03-23T01:35:54;3.88;;;1.20;;
72127;SDS011;60000;51.030;7.024;2023-03-23T01:38:20;5.10;;;1.47;;
72127;SDS011;60000;51.030;7.024;2023-03-23T01:40:46;3.67;;;1.30;;
72127;SDS011;60000;51.030;7.024;2023-03-23T01:43:12;4.07;;;1.40;;
72127;SDS011;60000;51.030;7.024;2023-03-23T01:45:39;4.13;;;1.30;;
72127;SDS011;60000;51.030;7.024;2023-03-23T01:48:11;3.45;;;1.25;;
72127;SDS011;60000;51.030;7.024;2023-03-23T01:53:37;4.13;;;1.60;;
72127;SDS011;60000;51.030;7.024;2023-03-23T01:56:07;3.90;;;1.30;;
72127;SDS011;60000;51.030;7.024;2023-03-23T01:58:36;3.83;;;1.30;;
72127;SDS011;60000;51.030;7.024;2023-03-23T02:01:04;4.32;;;1.40;;
72127;SDS011;60000;51.030;7.024;2023-03-23T02:03:32;4.38;;;1.70;;
72127;SDS011;60000;51.030;7.024;2023-03-23T02:06:01;4.07;;;1.50;;
72127;SDS011;60000;51.030;7.024;2023-03-23T02:08:27;7.15;;;1.63;;
72127;SDS011;60000;51.030;7.024;2023-03-23T02:10:54;4.18;;;1.55;;
72127;SDS011;60000;51.030;7.024;2023-03-23T02:13:20;5.93;;;1.60;;
72127;SDS011;60000;51.030;7.024;2023-03-23T02:18:41;5.47;;;1.83;;
72127;SDS011;60000;51.030;7.024;2023-03-23T02:26:59;3.72;;;1.40;;
72127;SDS011;60000;51.030;7.024;2023-03-23T02:29:36;4.93;;;1.50;;
72127;SDS011;60000;51.030;7.024;2023-03-23T02:34:55;4.10;;;1.45;;
72127;SDS011;60000;51.030;7.024;2023-03-23T02:37:28;5.45;;;1.35;;
72127;SDS011;60000;51.030;7.024;2023-03-23T02:40:06;5.15;;;1.48;;
72127;SDS011;60000;51.030;7.024;2023-03-23T02:42:36;4.60;;;1.80;;
72127;SDS011;60000;51.030;7.024;2023-03-23T02:45:05;4.53;;;1.70;;
72127;SDS011;60000;51.030;7.024;2023-03-23T02:47:33;5.65;;;1.77;;
72127;SDS011;60000;51.030;7.024;2023-03-23T02:50:02;3.72;;;1.40;;
72127;SDS011;60000;51.030;7.024;2023-03-23T02:52:31;5.45;;;1.73;;
72127;SDS011;60000;51.030;7.024;2023-03-23T02:54:59;4.57;;;1.70;;
72127;SDS011;60000;51.030;7.024;2023-03-23T02:57:26;4.35;;;1.75;;
72127;SDS011;60000;51.030;7.024;2023-03-23T02:59:52;4.20;;;1.30;;
72127;SDS011;60000;51.030;7.024;2023-03-23T03:02:29;5.88;;;1.67;;
72127;SDS011;60000;51.030;7.024;2023-03-23T03:10:16;7.28;;;1.90;;
72127;SDS011;60000;51.030;7.024;2023-03-23T03:15:38;4.47;;;1.63;;
72127;SDS011;60000;51.030;7.024;2023-03-23T03:18:30;4.00;;;1.40;;
72127;SDS011;60000;51.030;7.024;2023-03-23T03:21:03;4.70;;;1.90;;
72127;SDS011;60000;51.030;7.024;2023-03-23T03:23:32;3.33;;;1.20;;
72127;SDS011;60000;51.030;7.024;2023-03-23T03:25:59;5.20;;;1.45;;
72127;SDS011;60000;51.030;7.024;2023-03-23T03:28:27;5.38;;;1.30;;
72127;SDS011;60000;51.030;7.024;2023-03-23T03:30:55;3.15;;;1.20;;
72127;SDS011;60000;51.030;7.024;2023-03-23T03:33:23;4.50;;;1.20;;
72127;SDS011;60000;51.030;7.024;2023-03-23T03:35:53;3.13;;;1.15;;
72127;SDS011;60000;51.030;7.024;2023-03-23T03:38:20;3.47;;;1.23;;
72127;SDS011;60000;51.030;7.024;2023-03-23T03:40:46;4.45;;;1.50;;
72127;SDS011;60000;51.030;7.024;2023-03-23T03:43:11;3.60;;;1.40;;
72127;SDS011;60000;51.030;7.024;2023-03-23T03:45:37;4.43;;;1.30;;
72127;SDS011;60000;51.030;7.024;2023-03-23T03:48:02;4.10;;;1.13;;
72127;SDS011;60000;51.030;7.024;2023-03-23T03:50:27;3.67;;;1.60;;
72127;SDS011;60000;51.030;7.024;2023-03-23T03:52:53;3.83;;;1.10;;
72127;SDS011;60000;51.030;7.024;2023-03-23T03:55:18;3.10;;;1.20;;
72127;SDS011;60000;51.030;7.024;2023-03-23T03:57:44;3.70;;;1.30;;
72127;SDS011;60000;51.030;7.024;2023-03-23T04:00:10;3.40;;;1.50;;
72127;SDS011;60000;51.030;7.024;2023-03-23T04:02:39;4.07;;;1.35;;
72127;SDS011;60000;51.030;7.024;2023-03-23T04:05:05;4.13;;;1.30;;
72127;SDS011;60000;51.030;7.024;2023-03-23T04:07:31;3.95;;;1.20;;
72127;SDS011;60000;51.030;7.024;2023-03-23T04:09:56;3.10;;;1.00;;
72127;SDS011;60000;51.030;7.024;2023-03-23T04:12:22;2.93;;;1.00;;
72127;SDS011;60000;51.030;7.024;2023-03-23T04:14:48;3.92;;;1.27;;
72127;SDS011;60000;51.030;7.024;2023-03-23T04:17:13;4.27;;;1.10;;
72127;SDS011;60000;51.030;7.024;2023-03-23T04:19:39;3.65;;;1.20;;
72127;SDS011;60000;51.030;7.024;2023-03-23T04:22:05;3.83;;;1.00;;
72127;SDS011;60000;51.030;7.024;2023-03-23T04:24:30;2.97;;;1.00;;
72127;SDS011;60000;51.030;7.024;2023-03-23T04:26:58;4.75;;;1.25;;
72127;SDS011;60000;51.030;7.024;2023-03-23T04:29:24;4.77;;;1.40;;
72127;SDS011;60000;51.030;7.024;2023-03-23T04:31:49;3.57;;;1.00;;
72127;SDS011;60000;51.030;7.024;2023-03-23T04:34:17;3.20;;;1.00;;
72127;SDS011;60000;51.030;7.024;2023-03-23T04:36:43;4.47;;;1.23;;
72127;SDS011;60000;51.030;7.024;2023-03-23T04:39:08;3.75;;;1.08;;
72127;SDS011;60000;51.030;7.024;2023-03-23T04:41:38;3.85;;;1.15;;
72127;SDS011;60000;51.030;7.024;2023-03-23T04:44:04;5.13;;;1.42;;
72127;SDS011;60000;51.030;7.024;2023-03-23T04:46:31;3.30;;;1.20;;
72127;SDS011;60000;51.030;7.024;2023-03-23T04:48:57;4.72;;;1.40;;
72127;SDS011;60000;51.030;7.024;2023-03-23T04:51:24;4.53;;;1.33;;
72127;SDS011;60000;51.030;7.024;2023-03-23T04:53:51;3.63;;;1.33;;
72127;SDS011;60000;51.030;7.024;2023-03-23T04:56:16;4.95;;;1.30;;
72127;SDS011;60000;51.030;7.024;2023-03-23T04:58:43;4.35;;;1.42;;
72127;SDS011;60000;51.030;7.024;2023-03-23T05:01:09;4.93;;;1.73;;
72127;SDS011;60000;51.030;7.024;2023-03-23T05:03:38;3.67;;;1.10;;
72127;SDS011;60000;51.030;7.024;2023-03-23T05:06:04;4.05;;;1.38;;
72127;SDS011;60000;51.030;7.024;2023-03-23T05:08:30;3.57;;;1.20;;
72127;SDS011;60000;51.030;7.024;2023-03-23T05:10:57;4.65;;;1.30;;
72127;SDS011;60000;51.030;7.024;2023-03-23T05:13:24;4.05;;;1.30;;
72127;SDS011;60000;51.030;7.024;2023-03-23T05:15:49;4.63;;;1.30;;
72127;SDS011;60000;51.030;7.024;2023-03-23T05:18:15;4.65;;;1.30;;
72127;SDS011;60000;51.030;7.024;2023-03-23T05:20:41;3.97;;;1.42;;
72127;SDS011;60000;51.030;7.024;2023-03-23T05:23:07;4.00;;;1.33;;
72127;SDS011;60000;51.030;7.024;2023-03-23T05:25:33;3.58;;;1.25;;
72127;SDS011;60000;51.030;7.024;2023-03-23T05:28:02;3.63;;;1.20;;
72127;SDS011;60000;51.030;7.024;2023-03-23T05:30:28;5.70;;;1.60;;
72127;SDS011;60000;51.030;7.024;2023-03-23T05:32:54;4.10;;;1.30;;
72127;SDS011;60000;51.030;7.024;2023-03-23T05:35:20;3.08;;;1.20;;
72127;SDS011;60000;51.030;7.024;2023-03-23T05:37:45;5.47;;;1.50;;
72127;SDS011;60000;51.030;7.024;2023-03-23T05:40:11;4.13;;;1.40;;
72127;SDS011;60000;51.030;7.024;2023-03-23T05:42:37;2.88;;;1.10;;
72127;SDS011;60000;51.030;7.024;2023-03-23T05:45:05;3.97;;;1.48;;
72127;SDS011;60000;51.030;7.024;2023-03-23T05:47:33;5.27;;;1.40;;
72127;SDS011;60000;51.030;7.024;2023-03-23T05:49:59;5.20;;;1.40;;
72127;SDS011;60000;51.030;7.024;2023-03-23T05:52:25;5.00;;;1.80;;
72127;SDS011;60000;51.030;7.024;2023-03-23T05:54:51;5.10;;;1.52;;
72127;SDS011;60000;51.030;7.024;2023-03-23T05:57:17;4.37;;;1.60;;
72127;SDS011;60000;51.030;7.024;2023-03-23T05:59:43;4.38;;;1.50;;
72127;SDS011;60000;51.030;7.024;2023-03-23T06:02:09;5.03;;;1.40;;
72127;SDS011;60000;51.030;7.024;2023-03-23T06:04:35;4.75;;;1.60;;
72127;SDS011;60000;51.030;7.024;2023-03-23T06:07:02;4.27;;;1.60;;
72127;SDS011;60000;51.030;7.024;2023-03-23T06:09:28;4.53;;;1.50;;
72127;SDS011;60000;51.030;7.024;2023-03-23T06:11:54;4.10;;;1.50;;
72127;SDS011;60000;51.030;7.024;2023-03-23T06:14:19;3.93;;;1.40;;
72127;SDS011;60000;51.030;7.024;2023-03-23T06:16:46;4.38;;;1.50;;
72127;SDS011;60000;51.030;7.024;2023-03-23T06:19:11;6.60;;;1.40;;
72127;SDS011;60000;51.030;7.024;2023-03-23T06:21:37;5.28;;;1.50;;
72127;SDS011;60000;51.030;7.024;2023-03-23T06:24:02;5.30;;;1.53;;
72127;SDS011;60000;51.030;7.024;2023-03-23T06:26:46;5.05;;;1.70;;
72127;SDS011;60000;51.030;7.024;2023-03-23T06:29:12;4.80;;;1.50;;
72127;SDS011;60000;51.030;7.024;2023-03-23T06:31:42;4.07;;;1.67;;
72127;SDS011;60000;51.030;7.024;2023-03-23T06:34:12;5.85;;;1.60;;
72127;SDS011;60000;51.030;7.024;2023-03-23T06:36:38;4.10;;;1.40;;
72127;SDS011;60000;51.030;7.024;2023-03-23T06:39:03;5.55;;;1.48;;
72127;SDS011;60000;51.030;7.024;2023-03-23T06:41:32;4.88;;;1.52;;
72127;SDS011;60000;51.030;7.024;2023-03-23T06:43:58;5.07;;;1.55;;
72127;SDS011;60000;51.030;7.024;2023-03-23T06:46:24;4.50;;;1.63;;
72127;SDS011;60000;51.030;7.024;2023-03-23T06:48:49;5.07;;;1.80;;
72127;SDS011;60000;51.030;7.024;2023-03-23T06:51:15;6.30;;;2.03;;
72127;SDS011;60000;51.030;7.024;2023-03-23T06:53:41;4.18;;;1.40;;
72127;SDS011;60000;51.030;7.024;2023-03-23T06:56:07;5.45;;;1.60;;
72127;SDS011;60000;51.030;7.024;2023-03-23T06:58:33;6.67;;;1.60;;
72127;SDS011;60000;51.030;7.024;2023-03-23T07:00:58;3.28;;;1.30;;
72127;SDS011;60000;51.030;7.024;2023-03-23T07:03:24;6.47;;;1.60;;
72127;SDS011;60000;51.030;7.024;2023-03-23T07:05:51;4.50;;;1.40;;
72127;SDS011;60000;51.030;7.024;2023-03-23T07:08:16;5.43;;;1.80;;
72127;SDS011;60000;51.030;7.024;2023-03-23T07:10:41;4.53;;;1.60;;
72127;SDS011;60000;51.030;7.024;2023-03-23T07:13:07;5.87;;;1.70;;
72127;SDS011;60000;51.030;7.024;2023-03-23T07:15:32;5.05;;;1.40;;
72127;SDS011;60000;51.030;7.024;2023-03-23T07:17:57;4.83;;;1.43;;
72127;SDS011;60000;51.030;7.024;2023-03-23T07:20:23;5.17;;;1.50;;
72127;SDS011;60000;51.030;7.024;2023-03-23T07:22:48;3.77;;;1.40;;
72127;SDS011;60000;51.030;7.024;2023-03-23T07:25:14;4.60;;;1.35;;
72127;SDS011;60000;51.030;7.024;2023-03-23T07:27:41;3.65;;;1.30;;
72127;SDS011;60000;51.030;7.024;2023-03-23T07:30:06;4.87;;;1.40;;
72127;SDS011;60000;51.030;7.024;2023-03-23T07:32:32;5.10;;;1.50;;
72127;SDS011;60000;51.030;7.024;2023-03-23T07:34:57;7.70;;;1.50;;
72127;SDS011;60000;51.030;7.024;2023-03-23T07:37:23;6.77;;;1.40;;
72127;SDS011;60000;51.030;7.024;2023-03-23T07:39:48;4.87;;;1.40;;
72127;SDS011;60000;51.030;7.024;2023-03-23T07:42:13;3.00;;;1.13;;
72127;SDS011;60000;51.030;7.024;2023-03-23T07:44:39;4.33;;;1.20;;
72127;SDS011;60000;51.030;7.024;2023-03-23T07:47:04;4.33;;;1.30;;
72127;SDS011;60000;51.030;7.024;2023-03-23T07:49:30;4.15;;;1.45;;
72127;SDS011;60000;51.030;7.024;2023-03-23T07:51:56;3.73;;;1.20;;
72127;SDS011;60000;51.030;7.024;2023-03-23T07:54:22;4.18;;;1.10;;
72127;SDS011;60000;51.030;7.024;2023-03-23T07:56:48;5.90;;;1.40;;
72127;SDS011;60000;51.030;7.024;2023-03-23T07:59:13;4.73;;;1.17;;
72127;SDS011;60000;51.030;7.024;2023-03-23T08:01:39;5.00;;;1.48;;
72127;SDS011;60000;51.030;7.024;2023-03-23T08:04:05;7.57;;;2.30;;
72127;SDS011;60000;51.030;7.024;2023-03-23T08:06:34;5.78;;;1.77;;
72127;SDS011;60000;51.030;7.024;2023-03-23T08:09:00;5.72;;;1.60;;
72127;SDS011;60000;51.030;7.024;2023-03-23T08:11:27;9.07;;;2.47;;
72127;SDS011;60000;51.030;7.024;2023-03-23T08:13:56;7.65;;;2.38;;
72127;SDS011;60000;51.030;7.024;2023-03-23T08:16:22;5.78;;;1.50;;
72127;SDS011;60000;51.030;7.024;2023-03-23T08:18:47;5.87;;;1.67;;
72127;SDS011;60000;51.030;7.024;2023-03-23T08:21:12;6.17;;;1.70;;
72127;SDS011;60000;51.030;7.024;2023-03-23T08:23:38;4.83;;;1.57;;
72127;SDS011;60000;51.030;7.024;2023-03-23T08:26:04;4.88;;;1.40;;
72127;SDS011;60000;51.030;7.024;2023-03-23T08:28:32;4.80;;;1.40;;
72127;SDS011;60000;51.030;7.024;2023-03-23T08:30:58;4.88;;;1.40;;
72127;SDS011;60000;51.030;7.024;2023-03-23T08:33:24;7.85;;;1.50;;
72127;SDS011;60000;51.030;7.024;2023-03-23T08:35:56;5.57;;;1.60;;
72127;SDS011;60000;51.030;7.024;2023-03-23T08:38:23;6.60;;;1.80;;
72127;SDS011;60000;51.030;7.024;2023-03-23T08:40:48;3.95;;;1.25;;
72127;SDS011;60000;51.030;7.024;2023-03-23T08:43:15;6.00;;;1.17;;
72127;SDS011;60000;51.030;7.024;2023-03-23T08:45:40;7.43;;;1.40;;
72127;SDS011;60000;51.030;7.024;2023-03-23T08:48:06;4.70;;;1.27;;
72127;SDS011;60000;51.030;7.024;2023-03-23T08:50:32;5.78;;;1.60;;
72127;SDS011;60000;51.030;7.024;2023-03-23T08:52:58;4.95;;;1.40;;
72127;SDS011;60000;51.030;7.024;2023-03-23T08:55:23;6.03;;;1.57;;
72127;SDS011;60000;51.030;7.024;2023-03-23T08:57:49;5.43;;;1.50;;
72127;SDS011;60000;51.030;7.024;2023-03-23T09:00:17;5.47;;;1.53;;
72127;SDS011;60000;51.030;7.024;2023-03-23T09:02:48;5.18;;;1.42;;
72127;SDS011;60000;51.030;7.024;2023-03-23T09:05:15;4.00;;;1.20;;
72127;SDS011;60000;51.030;7.024;2023-03-23T09:07:43;4.03;;;1.30;;
72127;SDS011;60000;51.030;7.024;2023-03-23T09:10:10;4.90;;;1.30;;
72127;SDS011;60000;51.030;7.024;2023-03-23T09:12:37;5.50;;;1.20;;
72127;SDS011;60000;51.030;7.024;2023-03-23T09:15:03;5.40;;;1.42;;
72127;SDS011;60000;51.030;7.024;2023-03-23T09:17:38;4.93;;;1.08;;
72127;SDS011;60000;51.030;7.024;2023-03-23T09:20:07;4.30;;;1.17;;
72127;SDS011;60000;51.030;7.024;2023-03-23T09:22:40;4.03;;;1.20;;
72127;SDS011;60000;51.030;7.024;2023-03-23T09:25:12;5.07;;;1.40;;
72127;SDS011;60000;51.030;7.024;2023-03-23T09:27:41;3.50;;;1.20;;
72127;SDS011;60000;51.030;7.024;2023-03-23T09:30:09;6.32;;;1.30;;
72127;SDS011;60000;51.030;7.024;2023-03-23T09:32:36;5.28;;;1.27;;
72127;SDS011;60000;51.030;7.024;2023-03-23T09:35:03;5.10;;;1.30;;
72127;SDS011;60000;51.030;7.024;2023-03-23T09:37:32;7.35;;;1.10;;
72127;SDS011;60000;51.030;7.024;2023-03-23T09:40:00;5.45;;;1.10;;
72127;SDS011;60000;51.030;7.024;2023-03-23T09:42:31;5.33;;;1.00;;
72127;SDS011;60000;51.030;7.024;2023-03-23T09:45:23;5.05;;;1.40;;
72127;SDS011;60000;51.030;7.024;2023-03-23T09:50:51;4.45;;;1.20;;
72127;SDS011;60000;51.030;7.024;2023-03-23T09:53:22;4.75;;;1.30;;
72127;SDS011;60000;51.030;7.024;2023-03-23T09:55:52;8.40;;;3.88;;
72127;SDS011;60000;51.030;7.024;2023-03-23T09:58:20;4.43;;;1.60;;
72127;SDS011;60000;51.030;7.024;2023-03-23T10:03:23;5.27;;;1.40;;
72127;SDS011;60000;51.030;7.024;2023-03-23T10:05:52;5.47;;;1.67;;
72127;SDS011;60000;51.030;7.024;2023-03-23T10:10:51;6.15;;;1.30;;
72127;SDS011;60000;51.030;7.024;2023-03-23T10:16:24;5.53;;;1.20;;
72127;SDS011;60000;51.030;7.024;2023-03-23T10:19:01;8.15;;;1.48;;
72127;SDS011;60000;51.030;7.024;2023-03-23T10:21:35;6.27;;;1.30;;
72127;SDS011;60000;51.030;7.024;2023-03-23T10:24:04;6.75;;;1.25;;
72127;SDS011;60000;51.030;7.024;2023-03-23T10:31:32;5.85;;;1.52;;
72127;SDS011;60000;51.030;7.024;2023-03-23T10:34:03;6.93;;;1.47;;
72127;SDS011;60000;51.030;7.024;2023-03-23T10:36:36;6.35;;;1.42;;
72127;SDS011;60000;51.030;7.024;2023-03-23T10:39:06;5.72;;;1.17;;
72127;SDS011;60000;51.030;7.024;2023-03-23T10:41:36;5.05;;;1.20;;
72127;SDS011;60000;51.030;7.024;2023-03-23T10:46:59;3.77;;;0.90;;
72127;SDS011;60000;51.030;7.024;2023-03-23T10:49:34;4.35;;;0.90;;
72127;SDS011;60000;51.030;7.024;2023-03-23T10:52:12;4.80;;;1.10;;
72127;SDS011;60000;51.030;7.024;2023-03-23T10:54:48;7.85;;;1.20;;
72127;SDS011;60000;51.030;7.024;2023-03-23T10:57:25;4.38;;;1.30;;
72127;SDS011;60000;51.030;7.024;2023-03-23T11:00:00;4.37;;;1.47;;
72127;SDS011;60000;51.030;7.024;2023-03-23T11:02:35;7.50;;;2.03;;
72127;SDS011;60000;51.030;7.024;2023-03-23T11:05:13;6.00;;;2.10;;
72127;SDS011;60000;51.030;7.024;2023-03-23T11:07:47;4.47;;;1.20;;
72127;SDS011;60000;51.030;7.024;2023-03-23T11:10:20;7.22;;;1.40;;
72127;SDS011;60000;51.030;7.024;2023-03-23T11:12:49;4.23;;;1.07;;
72127;SDS011;60000;51.030;7.024;2023-03-23T11:15:37;3.05;;;1.10;;
72127;SDS011;60000;51.030;7.024;2023-03-23T11:18:05;2.88;;;1.05;;
72127;SDS011;60000;51.030;7.024;2023-03-23T11:20:39;4.00;;;1.30;;
72127;SDS011;60000;51.030;7.024;2023-03-23T11:23:08;3.70;;;1.30;;
72127;SDS011;60000;51.030;7.024;2023-03-23T11:25:49;3.60;;;1.10;;
72127;SDS011;60000;51.030;7.024;2023-03-23T11:28:17;4.20;;;0.80;;
72127;SDS011;60000;51.030;7.024;2023-03-23T11:30:42;4.27;;;0.90;;
72127;SDS011;60000;51.030;7.024;2023-03-23T11:33:08;4.05;;;1.00;;
72127;SDS011;60000;51.030;7.024;2023-03-23T11:35:33;5.30;;;1.20;;
72127;SDS011;60000;51.030;7.024;2023-03-23T11:37:58;4.23;;;1.10;;
72127;SDS011;60000;51.030;7.024;2023-03-23T11:40:25;2.47;;;0.90;;
72127;SDS011;60000;51.030;7.024;2023-03-23T11:51:00;3.40;;;0.90;;
72127;SDS011;60000;51.030;7.024;2023-03-23T11:58:53;4.13;;;1.05;;
72127;SDS011;60000;51.030;7.024;2023-03-23T12:01:36;3.72;;;1.10;;
72127;SDS011;60000;51.030;7.024;2023-03-23T12:07:14;5.95;;;2.22;;
72127;SDS011;60000;51.030;7.024;2023-03-23T12:26:14;5.20;;;1.60;;
72127;SDS011;60000;51.030;7.024;2023-03-23T12:34:05;4.05;;;1.65;;
72127;SDS011;60000;51.030;7.024;2023-03-23T12:42:20;5.18;;;1.85;;
72127;SDS011;60000;51.030;7.024;2023-03-23T12:45:05;5.90;;;1.90;;
72127;SDS011;60000;51.030;7.024;2023-03-23T12:47:40;6.25;;;2.13;;
72127;SDS011;60000;51.030;7.024;2023-03-23T12:50:13;4.25;;;1.70;;
72127;SDS011;60000;51.030;7.024;2023-03-23T12:52:57;5.68;;;1.90;;
72127;SDS011;60000;51.030;7.024;2023-03-23T12:55:35;5.55;;;2.20;;
72127;SDS011;60000;51.030;7.024;2023-03-23T12:58:41;6.07;;;2.10;;
72127;SDS011;60000;51.030;7.024;2023-03-23T13:01:22;5.80;;;2.05;;
72127;SDS011;60000;51.030;7.024;2023-03-23T13:03:52;5.55;;;1.90;;
72127;SDS011;60000;51.030;7.024;2023-03-23T13:06:34;6.10;;;2.00;;
72127;SDS011;60000;51.030;7.024;2023-03-23T13:09:04;5.95;;;2.40;;
72127;SDS011;60000;51.030;7.024;2023-03-23T13:11:50;4.38;;;1.55;;
72127;SDS011;60000;51.030;7.024;2023-03-23T13:26:03;4.13;;;1.40;;
72127;SDS011;60000;51.030;7.024;2023-03-23T13:28:25;5.25;;;1.83;;
72127;SDS011;60000;51.030;7.024;2023-03-23T13:31:00;6.18;;;1.38;;
72127;SDS011;60000;51.030;7.024;2023-03-23T13:33:29;3.90;;;1.50;;
72127;SDS011;60000;51.030;7.024;2023-03-23T13:36:01;4.50;;;1.50;;
72127;SDS011;60000;51.030;7.024;2023-03-23T13:38:31;3.60;;;1.40;;
72127;SDS011;60000;51.030;7.024;2023-03-23T13:40:56;5.30;;;1.40;;
72127;SDS011;60000;51.030;7.024;2023-03-23T13:43:30;4.83;;;1.90;;
72127;SDS011;60000;51.030;7.024;2023-03-23T13:49:15;5.90;;;1.30;;
72127;SDS011;60000;51.030;7.024;2023-03-23T14:04:53;3.35;;;1.20;;
72127;SDS011;60000;51.030;7.024;2023-03-23T14:07:19;5.82;;;1.80;;
72127;SDS011;60000;51.030;7.024;2023-03-23T14:09:45;7.13;;;1.60;;
72127;SDS011;60000;51.030;7.024;2023-03-23T14:12:14;4.90;;;1.55;;
72127;SDS011;60000;51.030;7.024;2023-03-23T14:14:44;6.60;;;2.10;;
72127;SDS011;60000;51.030;7.024;2023-03-23T14:17:15;5.13;;;1.85;;
72127;SDS011;60000;51.030;7.024;2023-03-23T14:19:50;5.18;;;1.58;;
72127;SDS011;60000;51.030;7.024;2023-03-23T14:22:18;7.10;;;1.77;;
72127;SDS011;60000;51.030;7.024;2023-03-23T14:24:49;5.50;;;1.45;;
72127;SDS011;60000;51.030;7.024;2023-03-23T14:27:16;7.50;;;1.67;;
72127;SDS011;60000;51.030;7.024;2023-03-23T14:29:46;4.20;;;1.05;;
72127;SDS011;60000;51.030;7.024;2023-03-23T14:32:23;3.92;;;1.30;;
72127;SDS011;60000;51.030;7.024;2023-03-23T14:34:51;4.90;;;1.30;;
72127;SDS011;60000;51.030;7.024;2023-03-23T14:37:18;5.20;;;1.45;;
72127;SDS011;60000;51.030;7.024;2023-03-23T14:39:47;3.42;;;1.00;;
72127;SDS011;60000;51.030;7.024;2023-03-23T14:42:16;3.20;;;1.02;;
72127;SDS011;60000;51.030;7.024;2023-03-23T14:44:53;5.75;;;1.30;;
72127;SDS011;60000;51.030;7.024;2023-03-23T14:47:22;5.00;;;1.33;;
72127;SDS011;60000;51.030;7.024;2023-03-23T14:49:54;6.47;;;1.48;;
72127;SDS011;60000;51.030;7.024;2023-03-23T14:52:22;6.87;;;1.47;;
72127;SDS011;60000;51.030;7.024;2023-03-23T14:54:50;4.88;;;1.52;;
72127;SDS011;60000;51.030;7.024;2023-03-23T14:57:19;4.30;;;1.27;;
72127;SDS011;60000;51.030;7.024;2023-03-23T14:59:52;4.38;;;1.27;;
72127;SDS011;60000;51.030;7.024;2023-03-23T15:02:36;11.10;;;4.87;;
72127;SDS011;60000;51.030;7.024;2023-03-23T15:05:14;7.07;;;2.22;;
72127;SDS011;60000;51.030;7.024;2023-03-23T15:07:45;6.38;;;2.65;;
72127;SDS011;60000;51.030;7.024;2023-03-23T15:10:16;9.13;;;3.25;;
72127;SDS011;60000;51.030;7.024;2023-03-23T15:12:44;11.57;;;4.00;;
72127;SDS011;60000;51.030;7.024;2023-03-23T15:15:31;8.23;;;3.27;;
72127;SDS011;60000;51.030;7.024;2023-03-23T15:17:59;10.30;;;2.92;;
72127;SDS011;60000;51.030;7.024;2023-03-23T15:20:30;11.63;;;4.30;;
72127;SDS011;60000;51.030;7.024;2023-03-23T15:23:13;11.30;;;4.65;;
72127;SDS011;60000;51.030;7.024;2023-03-23T15:25:40;8.73;;;3.80;;
72127;SDS011;60000;51.030;7.024;2023-03-23T15:28:17;7.13;;;2.60;;
72127;SDS011;60000;51.030;7.024;2023-03-23T15:30:48;7.70;;;2.78;;
72127;SDS011;60000;51.030;7.024;2023-03-23T15:33:15;8.30;;;2.90;;
72127;SDS011;60000;51.030;7.024;2023-03-23T15:35:48;5.22;;;1.70;;
72127;SDS011;60000;51.030;7.024;2023-03-23T15:38:23;7.55;;;2.00;;
72127;SDS011;60000;51.030;7.024;2023-03-23T15:40:51;11.93;;;3.27;;
72127;SDS011;60000;51.030;7.024;2023-03-23T15:43:35;10.90;;;3.33;;
72127;SDS011;60000;51.030;7.024;2023-03-23T15:48:47;4.30;;;1.13;;
72127;SDS011;60000;51.030;7.024;2023-03-23T15:51:32;5.43;;;1.50;;
72127;SDS011;60000;51.030;7.024;2023-03-23T15:53:57;4.60;;;1.40;;
72127;SDS011;60000;51.030;7.024;2023-03-23T15:56:23;4.18;;;1.20;;
72127;SDS011;60000;51.030;7.024;2023-03-23T15:58:49;5.70;;;1.80;;
72127;SDS011;60000;51.030;7.024;2023-03-23T16:06:22;4.22;;;1.15;;
72127;SDS011;60000;51.030;7.024;2023-03-23T16:08:50;3.90;;;1.33;;
72127;SDS011;60000;51.030;7.024;2023-03-23T16:11:16;6.50;;;1.30;;
72127;SDS011;60000;51.030;7.024;2023-03-23T16:13:43;5.13;;;1.40;;
72127;SDS011;60000;51.030;7.024;2023-03-23T16:16:13;8.70;;;2.47;;
72127;SDS011;60000;51.030;7.024;2023-03-23T16:18:44;5.43;;;1.30;;
72127;SDS011;60000;51.030;7.024;2023-03-23T16:21:10;6.43;;;1.53;;
72127;SDS011;60000;51.030;7.024;2023-03-23T16:23:35;5.83;;;1.57;;
72127;SDS011;60000;51.030;7.024;2023-03-23T16:26:01;6.72;;;1.63;;
72127;SDS011;60000;51.030;7.024;2023-03-23T16:28:26;6.83;;;2.30;;
72127;SDS011;60000;51.030;7.024;2023-03-23T16:30:51;10.30;;;3.27;;
72127;SDS011;60000;51.030;7.024;2023-03-23T16:33:17;13.43;;;4.20;;
72127;SDS011;60000;51.030;7.024;2023-03-23T16:35:43;6.63;;;2.40;;
72127;SDS011;60000;51.030;7.024;2023-03-23T16:38:15;5.37;;;1.60;;
72127;SDS011;60000;51.030;7.024;2023-03-23T16:40:41;7.10;;;1.50;;
72127;SDS011;60000;51.030;7.024;2023-03-23T16:43:08;5.43;;;1.60;;
72127;SDS011;60000;51.030;7.024;2023-03-23T16:45:33;6.37;;;1.50;;
72127;SDS011;60000;51.030;7.024;2023-03-23T16:47:59;4.90;;;1.30;;
72127;SDS011;60000;51.030;7.024;2023-03-23T16:50:26;6.63;;;1.55;;
72127;SDS011;60000;51.030;7.024;2023-03-23T16:52:53;6.17;;;1.93;;
72127;SDS011;60000;51.030;7.024;2023-03-23T16:55:18;6.63;;;1.93;;
72127;SDS011;60000;51.030;7.024;2023-03-23T16:57:43;5.32;;;1.80;;
72127;SDS011;60000;51.030;7.024;2023-03-23T17:00:10;7.17;;;2.37;;